Winona, Missouri
Current Conditions -  °F | °C
As of 3:53 AM on Tuesday 27 Jan 2015 (Local Time) from KUNO Reporting Station
Clear Clear  
Wind Chill: 38°   Ceiling: Unl
Heat Index: 43°   Visibility: 10mi
Dew Point: 32°   Wind: 9mph
Humidity: 65%   Direction: 330°NNW
Pressure: 30"   Gusts: NA
Location:  37.01°N, 91.32°W
Report Text: KUNO 270953Z AUTO 33008KT 10SM CLR 06/00 A3000 RMK AO2 SLP159 T00610000
Loading
Personal Weather Stations






























Interactive Weather Map New forecast layout! Learn more

10-Day Weather Forecast

Advertisements
Track Severe Weather on mobile